Time;durP1;ratioP1;P1;durP2;ratioP2;P2;SDS_P1;SDS_P2;PMS_P1;PMS_P2;Temp;Humidity;BMP_temperature;BMP_pressure;BME280_temperature;BME280_humidity;BME280_pressure;Samples;Min_cycle;Max_cycle;Signal;HPM_P1;HPM_P2
2022/06/03 00:01:19;;;;;;;8.48;6.18;;;10.50;83.80;;;;;;5036374;28;20128;-76
2022/06/03 00:03:50;;;;;;;9.27;7.05;;;10.50;84.10;;;;;;5036523;28;20405;-77
2022/06/03 00:06:16;;;;;;;9.48;6.90;;;10.50;84.00;;;;;;5036466;28;20055;-73
2022/06/03 00:08:47;;;;;;;9.20;7.35;;;10.50;84.40;;;;;;5036368;28;20049;-75
2022/06/03 00:11:37;;;;;;;8.02;6.78;;;10.50;84.00;;;;;;5036448;28;20127;-76
2022/06/03 00:14:38;;;;;;;9.73;6.38;;;10.40;84.00;;;;;;5019748;28;20041;-75
2022/06/03 00:17:22;;;;;;;7.53;6.70;;;10.40;84.40;;;;;;5036463;28;20397;-75
2022/06/03 00:20:13;;;;;;;8.38;6.90;;;10.40;84.50;;;;;;5036111;28;20049;-75
2022/06/03 00:23:07;;;;;;;9.90;7.28;;;10.40;84.50;;;;;;5035940;28;20076;-76
2022/06/03 00:25:51;;;;;;;10.50;7.13;;;10.40;84.70;;;;;;5019598;28;20048;-74
2022/06/03 00:28:22;;;;;;;8.52;7.05;;;10.30;84.50;;;;;;5036319;28;20107;-76
2022/06/03 00:31:07;;;;;;;11.68;7.35;;;10.30;84.70;;;;;;5035888;28;20128;-74
2022/06/03 00:34:01;;;;;;;8.07;6.88;;;10.30;84.90;;;;;;5035738;28;20040;-76
2022/06/03 00:37:08;;;;;;;8.48;6.82;;;10.30;84.80;;;;;;5035739;28;20503;-76
2022/06/03 00:39:42;;;;;;;10.65;6.90;;;10.30;85.30;;;;;;5036008;28;20064;-77
2022/06/03 00:42:26;;;;;;;7.90;6.95;;;10.30;85.10;;;;;;5035694;28;20037;-75
2022/06/03 00:45:09;;;;;;;8.85;6.78;;;10.30;85.20;;;;;;5035764;28;20052;-75
2022/06/03 00:48:24;;;;;;;10.27;6.20;;;10.30;85.20;;;;;;5035641;28;20048;-76
2022/06/03 00:51:06;;;;;;;10.68;7.85;;;10.20;85.60;;;;;;4972457;28;20050;-74
2022/06/03 00:53:37;;;;;;;8.52;6.75;;;10.20;85.30;;;;;;4956259;28;20126;-76
2022/06/03 00:56:40;;;;;;;10.32;7.85;;;10.20;85.40;;;;;;5010379;28;20045;-73
2022/06/03 00:59:26;;;;;;;8.95;6.32;;;10.20;85.30;;;;;;5035360;28;20037;-75
2022/06/03 01:02:10;;;;;;;7.57;6.63;;;10.10;85.40;;;;;;4995495;28;20140;-77
2022/06/03 01:05:02;;;;;;;9.50;6.40;;;10.10;85.60;;;;;;5032093;28;20084;-75
2022/06/03 01:07:52;;;;;;;11.75;7.50;;;10.10;85.70;;;;;;5032234;28;20049;-76
2022/06/03 01:10:37;;;;;;;8.20;6.72;;;10.10;85.90;;;;;;5015788;28;20441;-76
2022/06/03 01:13:28;;;;;;;10.02;6.53;;;10.10;86.00;;;;;;5031902;28;20107;-76
2022/06/03 01:16:08;;;;;;;8.77;6.75;;;10.10;86.40;;;;;;5001770;28;20099;-74
2022/06/03 01:18:55;;;;;;;8.90;6.90;;;10.10;86.70;;;;;;5015463;28;20080;-74
2022/06/03 01:21:48;;;;;;;9.90;6.80;;;10.20;86.70;;;;;;5031769;28;20069;-75
2022/06/03 01:25:01;;;;;;;9.88;7.32;;;10.10;86.50;;;;;;5015292;28;20052;-77
2022/06/03 01:28:10;;;;;;;8.70;7.63;;;10.10;86.80;;;;;;5015357;28;20413;-73
2022/06/03 01:30:59;;;;;;;9.73;7.20;;;10.10;87.00;;;;;;5031640;28;20052;-75
2022/06/03 01:34:04;;;;;;;9.55;7.30;;;10.10;86.80;;;;;;5031782;28;20506;-75
2022/06/03 01:36:44;;;;;;;9.40;7.78;;;10.10;86.70;;;;;;5031708;28;20037;-76
2022/06/03 01:39:12;;;;;;;10.55;7.55;;;10.10;86.40;;;;;;5031639;28;20034;-75
2022/06/03 01:42:14;;;;;;;9.02;7.30;;;10.10;86.50;;;;;;5031835;28;20038;-76
2022/06/03 01:44:58;;;;;;;9.77;7.97;;;10.10;86.40;;;;;;5031862;28;20064;-77
2022/06/03 01:48:02;;;;;;;11.20;7.60;;;10.10;86.20;;;;;;5031640;28;20049;-75
2022/06/03 01:50:42;;;;;;;8.70;6.90;;;10.10;86.50;;;;;;4939678;28;20046;-76
2022/06/03 01:53:29;;;;;;;11.10;7.50;;;10.00;85.90;;;;;;5024498;28;20133;-76
2022/06/03 01:55:55;;;;;;;10.55;8.80;;;10.00;86.00;;;;;;5031789;28;20494;-73
2022/06/03 01:59:13;;;;;;;11.65;8.65;;;9.90;86.00;;;;;;5031463;28;20113;-76
2022/06/03 02:02:00;;;;;;;10.40;7.80;;;10.00;86.20;;;;;;4977494;28;20050;-74
2022/06/03 02:04:35;;;;;;;10.98;8.13;;;9.90;86.30;;;;;;5031404;28;20408;-76
2022/06/03 02:07:40;;;;;;;15.52;9.20;;;9.90;86.50;;;;;;5032249;28;20052;-76
2022/06/03 02:10:38;;;;;;;9.90;7.10;;;9.90;86.50;;;;;;4979153;28;20136;-77
2022/06/03 02:13:16;;;;;;;12.57;8.88;;;9.90;86.70;;;;;;5035188;28;20043;-75
2022/06/03 02:16:11;;;;;;;10.65;8.52;;;9.80;86.10;;;;;;5035362;28;20041;-74
2022/06/03 02:19:02;;;;;;;11.60;7.70;;;9.80;86.10;;;;;;5018671;28;20038;-75
2022/06/03 02:22:01;;;;;;;10.48;8.63;;;9.80;86.20;;;;;;5018489;28;20041;-76
2022/06/03 02:24:39;;;;;;;9.15;7.22;;;9.70;86.20;;;;;;5035201;28;20397;-75
2022/06/03 02:27:24;;;;;;;9.98;7.80;;;9.70;86.40;;;;;;5035309;28;20052;-75
2022/06/03 02:33:17;;;;;;;13.05;9.18;;;9.70;86.50;;;;;;5034783;28;20099;-75
2022/06/03 02:36:17;;;;;;;11.45;8.43;;;9.70;86.40;;;;;;5018269;28;20073;-76
2022/06/03 02:39:07;;;;;;;9.45;8.00;;;9.60;86.40;;;;;;5018257;28;20044;-76
2022/06/03 02:41:46;;;;;;;10.07;7.22;;;9.60;86.50;;;;;;5018432;28;20056;-74
2022/06/03 02:44:44;;;;;;;12.98;8.77;;;9.60;86.50;;;;;;5034665;28;20042;-74
2022/06/03 02:47:38;;;;;;;7.97;7.18;;;9.60;86.50;;;;;;5034658;28;20037;-77
2022/06/03 02:50:33;;;;;;;9.90;8.00;;;9.50;86.50;;;;;;5034557;28;20481;-76
2022/06/03 02:53:17;;;;;;;13.23;8.23;;;9.50;86.60;;;;;;5034725;28;20041;-75
2022/06/03 02:56:19;;;;;;;12.57;8.07;;;9.50;86.60;;;;;;5034719;28;20095;-75
2022/06/03 02:59:35;;;;;;;8.05;7.25;;;9.50;86.50;;;;;;5023797;28;20053;-75
2022/06/03 03:02:07;;;;;;;8.63;7.72;;;9.40;86.90;;;;;;4958199;28;20125;-75
2022/06/03 03:04:54;;;;;;;9.82;8.23;;;9.30;86.80;;;;;;5028698;28;20136;-74
2022/06/03 03:07:48;;;;;;;10.40;8.45;;;9.30;86.50;;;;;;5034211;28;20057;-75
2022/06/03 03:10:29;;;;;;;9.88;8.45;;;9.20;86.90;;;;;;5033991;28;20500;-75
2022/06/03 03:13:21;;;;;;;11.48;8.90;;;9.20;86.70;;;;;;5033771;28;20055;-76
2022/06/03 03:16:00;;;;;;;11.27;9.05;;;9.20;86.70;;;;;;5033958;28;20045;-75
2022/06/03 03:18:42;;;;;;;10.50;7.93;;;9.10;86.90;;;;;;5033348;28;20458;-75
2022/06/03 03:21:26;;;;;;;11.10;8.60;;;9.10;86.90;;;;;;5034232;28;20034;-76
2022/06/03 03:24:10;;;;;;;;;;;9.20;87.20;;;;;;5034517;28;20124;-76
2022/06/03 03:26:53;;;;;;;11.35;8.77;;;9.10;87.70;;;;;;5033794;28;19999;-73
2022/06/03 03:29:27;;;;;;;13.88;9.20;;;9.10;87.10;;;;;;5033809;28;20045;-76
2022/06/03 03:32:05;;;;;;;11.55;8.13;;;9.10;87.20;;;;;;5033678;28;20080;-76
2022/06/03 03:34:49;;;;;;;9.85;8.00;;;9.10;87.40;;;;;;5033612;28;20089;-75
2022/06/03 03:37:36;;;;;;;11.40;8.30;;;9.20;87.50;;;;;;5034018;28;20406;-74
2022/06/03 03:40:23;;;;;;;10.18;8.55;;;9.20;87.40;;;;;;5033866;28;20098;-76
2022/06/03 03:43:04;;;;;;;13.70;9.57;;;9.30;87.50;;;;;;5016984;28;20037;-75
2022/06/03 03:45:48;;;;;;;12.98;9.02;;;9.30;87.60;;;;;;5033555;28;20041;-74
2022/06/03 03:48:46;;;;;;;10.52;8.90;;;9.30;87.60;;;;;;5033528;28;20083;-73
2022/06/03 03:51:30;;;;;;;12.30;8.88;;;9.30;87.60;;;;;;5033437;28;20139;-76
2022/06/03 03:54:05;;;;;;;13.57;9.05;;;9.40;87.50;;;;;;5033461;28;20077;-75
2022/06/03 03:56:30;;;;;;;12.02;9.60;;;9.30;87.40;;;;;;5033270;28;20053;-77
2022/06/03 03:59:30;;;;;;;12.40;9.60;;;9.30;87.50;;;;;;5033536;28;20037;-77
2022/06/03 04:02:17;;;;;;;14.27;9.57;;;9.40;87.40;;;;;;5033392;28;20439;-76
2022/06/03 04:04:58;;;;;;;12.70;9.38;;;9.40;87.20;;;;;;5033018;28;20494;-75
2022/06/03 04:07:42;;;;;;;13.50;9.57;;;9.40;87.20;;;;;;5016958;28;20057;-73
2022/06/03 04:10:33;;;;;;;11.57;9.07;;;9.40;87.20;;;;;;5033092;28;20481;-75
2022/06/03 04:13:19;;;;;;;11.30;9.43;;;9.40;87.40;;;;;;5016353;28;20048;-77
2022/06/03 04:16:04;;;;;;;12.60;8.98;;;9.40;87.30;;;;;;5016718;28;20274;-76
2022/06/03 04:18:36;;;;;;;;;;;9.50;87.50;;;;;;5033352;28;20034;-75
2022/06/03 04:21:26;;;;;;;13.77;9.57;;;9.40;88.10;;;;;;5032899;28;19917;-76
2022/06/03 04:24:16;;;;;;;8.15;7.15;;;9.50;87.50;;;;;;5033083;28;20053;-76
2022/06/03 04:27:03;;;;;;;11.63;8.50;;;9.50;87.80;;;;;;5016194;28;20548;-76
2022/06/03 04:29:48;;;;;;;9.68;7.93;;;9.50;87.50;;;;;;5015892;28;20041;-75
2022/06/03 04:32:33;;;;;;;11.05;8.90;;;9.60;88.40;;;;;;5016093;28;20506;-74
2022/06/03 04:35:29;;;;;;;13.02;9.00;;;9.70;87.90;;;;;;5032512;28;20512;-76
2022/06/03 04:38:20;;;;;;;12.60;8.48;;;9.70;88.00;;;;;;5032493;28;20171;-74
2022/06/03 04:41:13;;;;;;;12.30;9.88;;;9.80;87.60;;;;;;5032697;28;20053;-76
2022/06/03 04:44:01;;;;;;;11.45;8.68;;;9.90;87.40;;;;;;5032670;28;20045;-74
2022/06/03 04:46:54;;;;;;;10.15;8.70;;;10.00;87.80;;;;;;5032344;28;20045;-74
2022/06/03 04:49:42;;;;;;;11.82;7.70;;;10.00;87.70;;;;;;5032344;28;20504;-77
2022/06/03 04:52:53;;;;;;;13.13;9.43;;;10.10;87.60;;;;;;5032550;28;20374;-76
2022/06/03 04:55:33;;;;;;;8.10;6.13;;;10.20;88.40;;;;;;5015776;28;20045;-75
2022/06/03 04:58:17;;;;;;;7.25;6.50;;;10.30;88.10;;;;;;5032290;28;20041;-73
2022/06/03 05:01:01;;;;;;;10.25;8.32;;;10.40;87.90;;;;;;5032098;28;20044;-78
2022/06/03 05:03:52;;;;;;;8.15;6.68;;;10.50;88.20;;;;;;5032038;28;20124;-75
2022/06/03 05:06:30;;;;;;;9.75;7.80;;;10.60;88.20;;;;;;5015678;28;20128;-74
2022/06/03 05:09:17;;;;;;;11.02;8.95;;;10.70;88.20;;;;;;5032279;28;20429;-75
2022/06/03 05:12:14;;;;;;;12.77;8.05;;;10.70;88.00;;;;;;5015641;28;20037;-74
2022/06/03 05:15:04;;;;;;;9.32;7.25;;;10.90;88.40;;;;;;5031962;28;20081;-75
2022/06/03 05:17:38;;;;;;;8.30;6.95;;;11.00;88.20;;;;;;5032049;28;20117;-74
2022/06/03 05:20:29;;;;;;;7.78;6.25;;;11.00;87.40;;;;;;5032012;28;20037;-76
2022/06/03 05:23:26;;;;;;;8.70;7.20;;;11.10;87.50;;;;;;5032141;28;20041;-75
2022/06/03 05:26:27;;;;;;;7.78;7.00;;;11.20;87.30;;;;;;5032426;28;20055;-78
2022/06/03 05:29:16;;;;;;;9.98;8.35;;;11.40;87.80;;;;;;5007007;28;20092;-75
2022/06/03 05:32:00;;;;;;;15.40;8.38;;;11.50;88.20;;;;;;5021407;28;20049;-74
2022/06/03 05:34:44;;;;;;;11.35;8.45;;;11.50;87.80;;;;;;5031790;28;20100;-74
2022/06/03 05:37:41;;;;;;;9.98;6.95;;;11.60;88.10;;;;;;5032018;28;20053;-77
2022/06/03 05:40:18;;;;;;;13.13;7.70;;;11.80;87.40;;;;;;5031682;28;20041;-74
2022/06/03 05:42:53;;;;;;;8.18;6.75;;;11.80;86.90;;;;;;5036417;28;20048;-76
2022/06/03 05:45:48;;;;;;;7.35;6.10;;;11.90;87.20;;;;;;5033822;28;20046;-77
2022/06/03 05:48:24;;;;;;;9.45;6.60;;;12.00;86.70;;;;;;5027728;28;20494;-75
2022/06/03 05:51:10;;;;;;;7.03;5.80;;;12.00;86.30;;;;;;5031186;28;20053;-74
2022/06/03 05:53:48;;;;;;;7.40;6.13;;;12.10;86.00;;;;;;5032993;28;20049;-76
2022/06/03 05:56:53;;;;;;;8.25;6.68;;;12.20;85.50;;;;;;5029903;28;20045;-76
2022/06/03 05:59:46;;;;;;;9.23;6.13;;;12.20;85.10;;;;;;5013553;28;20072;-76
2022/06/03 06:02:17;;;;;;;5.93;4.88;;;12.30;84.60;;;;;;5015897;28;20045;-73
2022/06/03 06:04:52;;;;;;;8.55;5.70;;;12.40;84.20;;;;;;5034353;28;20139;-73
2022/06/03 06:07:37;;;;;;;6.72;5.00;;;12.50;83.30;;;;;;5024560;28;20055;-73
2022/06/03 06:10:26;;;;;;;8.18;5.18;;;12.50;83.40;;;;;;5043309;28;20062;-74
2022/06/03 06:12:59;;;;;;;6.00;5.22;;;12.60;82.10;;;;;;5035889;28;20061;-73
2022/06/03 06:16:06;;;;;;;7.28;5.38;;;12.60;82.00;;;;;;5040121;28;20053;-73
2022/06/03 06:19:04;;;;;;;6.47;5.82;;;12.70;81.90;;;;;;5027355;28;20040;-75
2022/06/03 06:21:51;;;;;;;6.93;5.68;;;12.80;81.20;;;;;;5039961;28;20194;-74
2022/06/03 06:24:39;;;;;;;7.10;4.80;;;13.00;80.90;;;;;;5041646;28;20052;-73
2022/06/03 06:27:44;;;;;;;7.50;5.13;;;13.00;80.80;;;;;;5041614;28;20612;-73
2022/06/03 06:30:34;;;;;;;5.28;4.78;;;13.10;80.90;;;;;;5030813;28;20076;-73
2022/06/03 06:33:12;;;;;;;6.35;4.20;;;13.20;80.90;;;;;;5039666;28;20055;-75
2022/06/03 06:36:07;;;;;;;8.63;4.88;;;13.40;80.00;;;;;;5041134;28;20049;-73
2022/06/03 06:38:51;;;;;;;5.72;3.80;;;13.50;80.30;;;;;;5027717;28;20053;-75
2022/06/03 06:41:46;;;;;;;5.90;3.47;;;13.60;79.90;;;;;;5042231;28;20492;-72
2022/06/03 06:44:31;;;;;;;4.22;3.28;;;13.60;79.30;;;;;;5024617;28;20061;-73
2022/06/03 06:47:20;;;;;;;4.30;2.65;;;13.80;78.50;;;;;;5042425;28;20524;-75
2022/06/03 06:49:51;;;;;;;4.13;2.45;;;13.90;76.50;;;;;;5045681;28;20045;-73
2022/06/03 06:52:17;;;;;;;3.35;2.40;;;14.00;75.20;;;;;;5040757;28;20048;-72
2022/06/03 06:55:01;;;;;;;3.45;2.05;;;14.10;75.80;;;;;;5040815;28;20044;-72
2022/06/03 06:57:33;;;;;;;3.00;2.03;;;14.20;74.80;;;;;;5037794;28;20133;-75
2022/06/03 07:00:24;;;;;;;3.40;2.30;;;14.40;74.40;;;;;;5038690;28;20131;-74
2022/06/03 07:03:12;;;;;;;2.95;2.55;;;14.50;74.30;;;;;;5038558;28;20129;-74
2022/06/03 07:05:50;;;;;;;2.58;1.70;;;14.60;73.00;;;;;;5037358;28;20092;-73
2022/06/03 07:08:25;;;;;;;2.33;1.85;;;14.70;71.90;;;;;;5038003;28;20136;-76
2022/06/03 07:11:27;;;;;;;2.58;1.75;;;14.80;72.80;;;;;;5039297;28;20057;-74
2022/06/03 07:13:57;;;;;;;3.25;1.65;;;14.90;70.10;;;;;;5036598;28;20496;-73
2022/06/03 07:20:07;;;;;;;3.50;2.00;;;15.10;70.10;;;;;;5038268;28;20752;-73
2022/06/03 07:22:57;;;;;;;3.47;1.75;;;15.20;71.00;;;;;;5040368;28;20080;-74
2022/06/03 07:25:33;;;;;;;3.53;2.03;;;15.40;71.30;;;;;;5036230;28;20041;-73
2022/06/03 07:28:34;;;;;;;3.92;1.70;;;15.50;71.20;;;;;;5037418;28;20048;-74
2022/06/03 07:31:13;;;;;;;3.50;1.90;;;15.50;67.90;;;;;;4999241;28;20057;-75
2022/06/03 07:33:49;;;;;;;2.95;1.63;;;15.70;68.10;;;;;;5034804;28;20175;-73
2022/06/03 07:36:33;;;;;;;4.55;2.15;;;15.80;68.10;;;;;;5035969;28;20485;-74
2022/06/03 07:39:25;;;;;;;4.47;1.67;;;16.00;68.30;;;;;;5037379;28;20072;-74
2022/06/03 07:42:10;;;;;;;2.35;1.52;;;16.00;68.90;;;;;;5024517;28;20037;-75
2022/06/03 07:45:26;;;;;;;4.40;2.55;;;16.20;68.90;;;;;;5037888;28;20053;-75
2022/06/03 07:47:54;;;;;;;3.40;2.05;;;16.30;68.30;;;;;;4984868;28;20060;-74
2022/06/03 07:50:21;;;;;;;5.45;2.33;;;16.40;68.50;;;;;;5020174;28;20095;-73
2022/06/03 07:53:13;;;;;;;6.85;1.98;;;16.50;68.60;;;;;;5035727;28;20048;-74
2022/06/03 07:55:40;;;;;;;4.93;1.90;;;16.60;67.90;;;;;;5000246;28;20585;-75
2022/06/03 07:58:09;;;;;;;3.97;2.10;;;16.70;68.10;;;;;;5018115;28;20064;-75
2022/06/03 08:00:37;;;;;;;2.83;2.25;;;16.80;67.10;;;;;;5037736;28;20411;-74
2022/06/03 08:03:24;;;;;;;4.32;2.40;;;16.90;66.50;;;;;;5037470;28;20057;-75
2022/06/03 08:05:57;;;;;;;3.22;2.15;;;17.00;65.10;;;;;;5037983;28;20087;-76
2022/06/03 08:11:26;;;;;;;4.72;2.45;;;17.30;67.40;;;;;;5039380;28;20124;-74
2022/06/03 08:13:54;;;;;;;3.90;2.28;;;17.40;65.60;;;;;;5035845;28;20045;-73
2022/06/03 08:16:24;;;;;;;4.22;1.92;;;17.50;66.30;;;;;;5034324;28;20044;-73
2022/06/03 08:18:53;;;;;;;2.67;1.67;;;17.60;66.20;;;;;;5036977;28;20056;-73
2022/06/03 08:21:28;;;;;;;5.88;2.22;;;17.70;64.20;;;;;;5036029;28;20096;-74
2022/06/03 08:23:55;;;;;;;3.05;2.20;;;17.80;64.90;;;;;;5022476;28;20501;-75
2022/06/03 08:26:27;;;;;;;5.93;2.08;;;17.90;65.30;;;;;;5020301;28;20045;-73
2022/06/03 08:29:03;;;;;;;4.07;1.88;;;18.00;65.00;;;;;;5017393;28;20390;-74
2022/06/03 08:31:30;;;;;;;4.00;2.47;;;18.00;64.40;;;;;;5037280;28;20049;-73
2022/06/03 08:33:59;;;;;;;2.95;2.38;;;18.10;64.90;;;;;;5033210;28;20060;-74
2022/06/03 08:36:34;;;;;;;22.65;8.50;;;18.20;64.80;;;;;;5033688;28;20041;-74
2022/06/03 08:39:12;;;;;;;29.35;10.40;;;18.20;63.10;;;;;;5037758;28;20636;-75
2022/06/03 08:41:48;;;;;;;7.80;2.80;;;18.20;63.50;;;;;;5036237;28;20142;-74
2022/06/03 08:44:14;;;;;;;3.83;2.00;;;18.30;63.40;;;;;;5036023;28;20045;-76
2022/06/03 08:46:57;;;;;;;5.07;2.40;;;18.40;63.30;;;;;;5021016;28;20452;-74
2022/06/03 08:49:28;;;;;;;11.55;3.85;;;18.40;61.90;;;;;;5040481;28;20059;-75
2022/06/03 08:52:10;;;;;;;5.32;2.65;;;18.50;62.30;;;;;;5039565;28;20048;-75
2022/06/03 08:54:51;;;;;;;9.00;3.08;;;18.50;62.80;;;;;;5035792;28;20552;-74
2022/06/03 08:57:22;;;;;;;18.48;6.70;;;18.50;62.80;;;;;;5036313;28;20123;-74
2022/06/03 08:59:55;;;;;;;4.22;2.45;;;18.60;62.70;;;;;;5036789;28;20363;-74
2022/06/03 09:02:32;;;;;;;3.42;2.38;;;18.70;62.80;;;;;;5039863;28;20045;-76
2022/06/03 09:05:08;;;;;;;3.85;1.98;;;18.80;60.50;;;;;;5036809;28;20103;-75
2022/06/03 09:07:49;;;;;;;3.33;2.28;;;18.90;61.50;;;;;;5039298;28;20064;-76
2022/06/03 09:10:37;;;;;;;4.13;2.25;;;19.00;60.40;;;;;;5017995;28;20452;-74
2022/06/03 09:13:25;;;;;;;5.18;2.40;;;19.20;61.80;;;;;;5036098;28;20147;-75
2022/06/03 09:15:52;;;;;;;2.70;2.25;;;19.30;61.00;;;;;;5030647;28;20060;-72
2022/06/03 09:18:28;;;;;;;4.97;2.47;;;19.40;61.90;;;;;;5034034;28;20052;-77
2022/06/03 09:21:05;;;;;;;5.43;2.05;;;19.50;61.60;;;;;;5034488;28;20057;-78
2022/06/03 09:23:49;;;;;;;4.05;2.15;;;19.60;61.70;;;;;;5038522;28;20343;-74
2022/06/03 09:26:32;;;;;;;3.08;1.98;;;19.80;61.10;;;;;;5032020;28;20057;-73
2022/06/03 09:29:01;;;;;;;2.63;1.90;;;19.90;60.60;;;;;;5021372;28;20049;-77
2022/06/03 09:31:27;;;;;;;2.45;2.22;;;20.00;59.50;;;;;;5038427;28;20048;-75
2022/06/03 09:33:55;;;;;;;2.40;2.17;;;20.00;60.00;;;;;;5022043;28;20037;-78
2022/06/03 09:36:23;;;;;;;4.43;2.10;;;20.10;59.70;;;;;;5034572;28;20044;-76
2022/06/03 09:38:54;;;;;;;2.97;2.00;;;20.30;60.70;;;;;;5035967;28;20102;-77
2022/06/03 09:41:24;;;;;;;2.55;2.20;;;20.30;58.80;;;;;;5034414;28;20048;-77
2022/06/03 09:43:53;;;;;;;3.85;2.65;;;20.40;58.70;;;;;;5035006;28;20068;-78
2022/06/03 09:46:21;;;;;;;3.35;2.10;;;20.50;57.30;;;;;;5031407;28;20038;-74
2022/06/03 09:48:48;;;;;;;5.63;2.50;;;20.60;59.20;;;;;;5038396;28;20056;-75
2022/06/03 09:54:21;;;;;;;3.25;2.03;;;20.70;58.30;;;;;;5035052;28;20565;-79
2022/06/03 09:56:50;;;;;;;3.75;2.13;;;20.80;58.10;;;;;;5035204;28;20045;-78
2022/06/03 09:59:21;;;;;;;3.90;2.20;;;20.90;57.70;;;;;;5039316;28;20045;-78
2022/06/03 10:01:48;;;;;;;3.47;1.90;;;21.00;58.20;;;;;;5033755;28;20036;-78
2022/06/03 10:04:16;;;;;;;4.82;2.10;;;21.10;58.00;;;;;;5037018;28;20073;-75
2022/06/03 10:06:48;;;;;;;4.32;2.85;;;21.20;57.70;;;;;;5037329;28;20053;-78
2022/06/03 10:17:49;;;;;;;3.67;2.50;;;21.50;56.40;;;;;;5036148;28;20107;-77
2022/06/03 10:20:17;;;;;;;3.63;2.38;;;21.60;54.80;;;;;;5038754;28;20060;-74
2022/06/03 10:22:44;;;;;;;7.15;2.47;;;21.70;55.50;;;;;;5037708;28;21360;-76
2022/06/03 10:25:11;;;;;;;6.07;2.13;;;21.70;55.70;;;;;;5035560;28;20057;-77
2022/06/03 10:27:36;;;;;;;3.83;2.42;;;21.80;55.90;;;;;;5037632;28;20056;-77
2022/06/03 10:30:05;;;;;;;4.15;2.28;;;21.90;54.90;;;;;;5021901;28;20102;-76
2022/06/03 10:32:32;;;;;;;3.00;2.67;;;21.90;53.70;;;;;;5025761;28;20045;-76
2022/06/03 10:35:13;;;;;;;3.00;2.20;;;22.00;54.90;;;;;;5020983;28;20041;-75
2022/06/03 10:37:48;;;;;;;4.20;2.42;;;22.10;51.60;;;;;;5022224;28;20056;-77
2022/06/03 10:40:14;;;;;;;6.53;2.47;;;22.20;53.30;;;;;;5041567;28;20083;-77
2022/06/03 10:42:44;;;;;;;4.47;3.00;;;22.10;52.20;;;;;;5023267;28;20520;-76
2022/06/03 10:45:10;;;;;;;2.53;2.33;;;22.20;53.50;;;;;;5035327;28;20064;-76
2022/06/03 10:47:43;;;;;;;4.43;2.33;;;22.30;54.60;;;;;;5033359;28;20057;-77
2022/06/03 10:50:11;;;;;;;4.55;2.78;;;22.40;54.30;;;;;;5032485;28;20053;-75
2022/06/03 11:01:23;;;;;;;4.55;2.70;;;22.50;52.70;;;;;;5040418;28;20059;-76
2022/06/03 11:03:51;;;;;;;4.05;2.85;;;22.70;53.40;;;;;;5040312;28;20041;-76
2022/06/03 11:06:22;;;;;;;4.05;2.72;;;22.70;52.80;;;;;;5041405;28;20037;-76
2022/06/03 11:08:54;;;;;;;4.05;2.80;;;22.70;52.40;;;;;;5029635;28;20048;-75
2022/06/03 11:11:42;;;;;;;3.63;2.15;;;22.70;52.10;;;;;;5024805;28;20041;-74
2022/06/03 11:14:36;;;;;;;7.43;2.78;;;22.80;48.30;;;;;;5046355;28;20497;-76
2022/06/03 11:17:11;;;;;;;6.15;3.35;;;22.80;51.00;;;;;;5025568;28;20196;-77
2022/06/03 11:19:52;;;;;;;4.95;2.30;;;22.80;50.10;;;;;;5043296;28;20768;-79
2022/06/03 11:22:31;;;;;;;5.68;2.90;;;22.90;51.20;;;;;;5042584;28;20103;-76
2022/06/03 11:25:26;;;;;;;3.70;2.10;;;23.00;50.00;;;;;;5039396;28;20090;-78
2022/06/03 11:28:31;;;;;;;2.95;2.50;;;23.10;51.70;;;;;;5042417;28;20041;-76
2022/06/03 11:31:00;;;;;;;3.42;2.47;;;23.00;48.40;;;;;;5038883;28;20194;-73
2022/06/03 11:33:42;;;;;;;3.40;2.58;;;23.00;51.10;;;;;;5041981;28;20510;-75
2022/06/03 11:36:17;;;;;;;3.10;2.13;;;23.10;49.20;;;;;;5043370;28;20095;-76
2022/06/03 11:39:01;;;;;;;2.47;2.10;;;23.20;51.30;;;;;;5043354;28;20055;-74
2022/06/03 11:41:38;;;;;;;2.58;2.28;;;23.40;51.90;;;;;;5040164;28;20082;-75
2022/06/03 11:44:19;;;;;;;4.70;2.38;;;23.50;49.30;;;;;;5045263;28;20048;-77
2022/06/03 11:47:07;;;;;;;5.15;2.40;;;23.70;49.50;;;;;;5043462;28;20633;-76
2022/06/03 11:49:33;;;;;;;3.60;2.60;;;23.70;46.50;;;;;;5025631;28;20059;-75
2022/06/03 11:52:00;;;;;;;2.55;2.35;;;23.80;48.80;;;;;;5041319;28;20060;-76
2022/06/03 11:54:27;;;;;;;4.43;2.42;;;23.80;48.20;;;;;;5040178;28;20049;-76
2022/06/03 11:56:54;;;;;;;4.53;2.40;;;23.70;48.20;;;;;;5041850;28;20477;-76
2022/06/03 11:59:39;;;;;;;6.30;2.78;;;23.80;49.70;;;;;;5023077;28;20064;-79
2022/06/03 12:02:23;;;;;;;2.83;2.20;;;23.80;47.10;;;;;;5045440;28;20547;-75
2022/06/03 12:04:52;;;;;;;;;;;23.90;50.00;;;;;;5022590;28;20536;-75
2022/06/03 12:07:50;;;;;;;2.85;2.20;;;24.10;49.20;;;;;;5041911;28;19916;-76
2022/06/03 12:10:21;;;;;;;4.45;2.08;;;23.80;48.40;;;;;;4988919;28;20068;-76
2022/06/03 12:13:16;;;;;;;4.18;2.35;;;23.90;47.20;;;;;;5024474;28;20119;-76
2022/06/03 12:15:55;;;;;;;4.63;2.67;;;23.90;47.40;;;;;;5041234;28;20068;-74
2022/06/03 12:18:32;;;;;;;3.53;2.38;;;24.10;48.60;;;;;;5040245;28;20545;-75
2022/06/03 12:21:06;;;;;;;4.18;2.55;;;24.30;48.00;;;;;;5039954;28;20588;-75
2022/06/03 12:23:32;;;;;;;;;;;24.60;49.70;;;;;;5042306;28;20055;-75
2022/06/03 12:26:00;;;;;;;3.70;2.75;;;24.60;53.10;;;;;;5039360;28;19925;-73
2022/06/03 12:28:42;;;;;;;6.95;3.00;;;24.80;51.70;;;;;;5023253;28;20044;-74
2022/06/03 12:31:26;;;;;;;4.35;2.50;;;24.80;51.70;;;;;;5044343;28;20131;-74
2022/06/03 12:33:52;;;;;;;5.20;2.92;;;24.90;51.80;;;;;;5039415;28;20067;-76
2022/06/03 12:36:27;;;;;;;4.53;2.70;;;24.90;51.80;;;;;;5041164;28;20032;-76
2022/06/03 12:39:11;;;;;;;3.65;2.75;;;24.60;51.90;;;;;;5043410;28;20044;-76
2022/06/03 12:41:46;;;;;;;6.70;3.28;;;24.40;50.90;;;;;;5039456;28;20508;-77
2022/06/03 12:44:42;;;;;;;5.35;2.95;;;24.30;52.00;;;;;;5037983;28;20052;-74
2022/06/03 12:47:27;;;;;;;3.95;2.67;;;24.40;53.00;;;;;;5040010;28;20105;-74
2022/06/03 12:50:17;;;;;;;4.97;2.65;;;24.40;52.60;;;;;;5041589;28;20037;-74
2022/06/03 12:52:45;;;;;;;3.40;2.30;;;24.40;51.60;;;;;;5040318;28;20049;-77
2022/06/03 12:55:27;;;;;;;3.13;2.20;;;24.40;51.30;;;;;;5021920;28;20049;-76
2022/06/03 12:58:15;;;;;;;4.75;2.13;;;24.40;50.20;;;;;;5049337;28;20450;-79
2022/06/03 13:00:53;;;;;;;5.80;2.40;;;24.30;52.00;;;;;;5056155;28;20405;-78
2022/06/03 13:03:25;;;;;;;3.75;2.10;;;24.40;50.50;;;;;;5055967;28;20396;-79
2022/06/03 13:05:53;;;;;;;4.72;2.50;;;24.40;50.40;;;;;;5055508;28;20071;-74
2022/06/03 13:08:28;;;;;;;3.80;2.10;;;24.30;50.30;;;;;;5055721;28;20392;-76
2022/06/03 13:11:01;;;;;;;5.40;2.53;;;24.30;51.00;;;;;;5052660;28;20040;-78
2022/06/03 13:13:30;;;;;;;4.28;2.10;;;24.30;51.10;;;;;;5039173;28;20043;-76
2022/06/03 13:16:20;;;;;;;4.78;2.17;;;24.20;50.30;;;;;;5037349;28;20071;-77
2022/06/03 13:18:50;;;;;;;3.65;2.30;;;24.30;50.50;;;;;;5048176;28;20123;-76
2022/06/03 13:21:28;;;;;;;4.70;1.88;;;24.30;50.00;;;;;;5055526;28;20052;-79
2022/06/03 13:24:20;;;;;;;3.17;1.65;;;24.40;50.10;;;;;;5054805;28;20542;-79
2022/06/03 13:26:49;;;;;;;5.47;2.00;;;24.40;49.70;;;;;;5055268;28;20076;-77
2022/06/03 13:29:44;;;;;;;5.45;1.85;;;24.40;49.90;;;;;;5055177;28;20044;-78
2022/06/03 13:32:58;;;;;;;3.35;1.65;;;24.40;50.10;;;;;;5055355;28;20072;-79
2022/06/03 13:35:28;;;;;;;2.13;1.33;;;24.30;50.20;;;;;;5048521;28;20055;-80
2022/06/03 13:37:59;;;;;;;5.75;1.55;;;24.40;50.60;;;;;;5038259;28;20037;-80
2022/06/03 13:40:25;;;;;;;5.53;1.85;;;24.40;48.90;;;;;;5038394;28;20319;-80
2022/06/03 13:42:59;;;;;;;3.05;1.50;;;24.40;49.30;;;;;;5054856;28;20041;-80
2022/06/03 13:45:46;;;;;;;4.22;1.75;;;24.40;48.80;;;;;;5038284;28;20043;-81
2022/06/03 13:48:33;;;;;;;2.53;1.55;;;24.40;49.20;;;;;;5054674;28;20041;-78
2022/06/03 13:51:33;;;;;;;2.40;1.35;;;24.30;49.80;;;;;;5055172;28;20037;-79
2022/06/03 13:54:15;;;;;;;2.83;1.60;;;24.40;49.70;;;;;;5054981;28;20044;-78
2022/06/03 13:57:08;;;;;;;3.97;1.90;;;24.40;49.00;;;;;;5054682;28;20115;-82
2022/06/03 13:59:39;;;;;;;1.52;1.33;;;24.60;49.30;;;;;;5038116;28;20032;-77
2022/06/03 14:02:22;;;;;;;4.40;1.63;;;24.50;48.70;;;;;;5054794;28;20083;-79
2022/06/03 14:05:01;;;;;;;2.57;1.20;;;24.70;48.80;;;;;;5058454;28;20676;-80
2022/06/03 14:07:36;;;;;;;2.65;1.42;;;24.60;47.20;;;;;;5058784;28;20294;-79
2022/06/03 14:10:07;;;;;;;4.57;1.25;;;24.60;47.60;;;;;;5042152;28;20040;-79
2022/06/03 14:12:52;;;;;;;4.68;1.30;;;24.60;48.40;;;;;;5058665;28;20044;-81
2022/06/03 14:15:18;;;;;;;2.45;1.10;;;24.60;47.10;;;;;;5058496;28;20048;-79
2022/06/03 14:17:57;;;;;;;3.50;1.30;;;24.60;47.60;;;;;;5041747;28;20480;-81
2022/06/03 14:20:37;;;;;;;2.03;1.20;;;24.60;47.60;;;;;;5041864;28;20040;-79
2022/06/03 14:23:20;;;;;;;3.13;1.27;;;24.70;46.50;;;;;;5058602;28;20388;-79
2022/06/03 14:26:04;;;;;;;4.85;1.48;;;24.70;46.80;;;;;;5041872;28;20044;-80
2022/06/03 14:28:54;;;;;;;1.70;1.10;;;24.70;45.50;;;;;;5058332;28;20041;-78
2022/06/03 14:31:44;;;;;;;4.15;1.20;;;24.60;44.70;;;;;;5041615;28;20048;-77
2022/06/03 14:34:29;;;;;;;4.95;1.17;;;24.40;45.20;;;;;;5041342;28;20140;-78